sensor_id;sensor_type;location;lat;lon;timestamp;temperature;humidity
55634;DHT22;41504;53.162;6.788;2022-10-17T00:02:00;12.70;86.90
55634;DHT22;41504;53.162;6.788;2022-10-17T00:04:26;12.70;87.10
55634;DHT22;41504;53.162;6.788;2022-10-17T00:06:52;12.70;87.10
55634;DHT22;41504;53.162;6.788;2022-10-17T00:09:17;12.70;87.10
55634;DHT22;41504;53.162;6.788;2022-10-17T00:11:43;12.70;87.20
55634;DHT22;41504;53.162;6.788;2022-10-17T00:14:09;12.70;87.10
55634;DHT22;41504;53.162;6.788;2022-10-17T00:16:35;12.80;87.10
55634;DHT22;41504;53.162;6.788;2022-10-17T00:19:03;12.70;87.10
55634;DHT22;41504;53.162;6.788;2022-10-17T00:21:29;12.80;87.10
55634;DHT22;41504;53.162;6.788;2022-10-17T00:23:55;12.70;87.10
55634;DHT22;41504;53.162;6.788;2022-10-17T00:26:21;12.70;87.10
55634;DHT22;41504;53.162;6.788;2022-10-17T00:28:51;12.60;87.20
55634;DHT22;41504;53.162;6.788;2022-10-17T00:31:19;12.60;87.30
55634;DHT22;41504;53.162;6.788;2022-10-17T00:33:45;12.70;87.30
55634;DHT22;41504;53.162;6.788;2022-10-17T00:36:15;12.70;87.30
55634;DHT22;41504;53.162;6.788;2022-10-17T00:38:42;12.70;87.40
55634;DHT22;41504;53.162;6.788;2022-10-17T00:41:10;12.70;87.40
55634;DHT22;41504;53.162;6.788;2022-10-17T00:46:22;12.60;87.40
55634;DHT22;41504;53.162;6.788;2022-10-17T00:48:50;12.60;87.50
55634;DHT22;41504;53.162;6.788;2022-10-17T00:51:18;12.60;87.50
55634;DHT22;41504;53.162;6.788;2022-10-17T00:53:45;12.60;87.60
55634;DHT22;41504;53.162;6.788;2022-10-17T00:56:11;12.60;87.60
55634;DHT22;41504;53.162;6.788;2022-10-17T00:58:37;12.60;87.60
55634;DHT22;41504;53.162;6.788;2022-10-17T01:01:03;12.70;87.60
55634;DHT22;41504;53.162;6.788;2022-10-17T01:03:29;12.70;87.70
55634;DHT22;41504;53.162;6.788;2022-10-17T01:05:58;12.70;87.60
55634;DHT22;41504;53.162;6.788;2022-10-17T01:08:24;12.80;87.60
55634;DHT22;41504;53.162;6.788;2022-10-17T01:13:36;12.80;87.60
55634;DHT22;41504;53.162;6.788;2022-10-17T01:16:17;12.80;87.60
55634;DHT22;41504;53.162;6.788;2022-10-17T01:21:36;12.80;87.80
55634;DHT22;41504;53.162;6.788;2022-10-17T01:30:02;12.80;87.90
55634;DHT22;41504;53.162;6.788;2022-10-17T01:47:05;13.00;88.00
55634;DHT22;41504;53.162;6.788;2022-10-17T01:49:34;13.00;88.00
55634;DHT22;41504;53.162;6.788;2022-10-17T01:52:10;13.00;88.00
55634;DHT22;41504;53.162;6.788;2022-10-17T01:55:03;13.10;88.10
55634;DHT22;41504;53.162;6.788;2022-10-17T01:57:36;13.10;88.00
55634;DHT22;41504;53.162;6.788;2022-10-17T02:00:08;13.10;88.10
55634;DHT22;41504;53.162;6.788;2022-10-17T02:02:36;13.00;88.20
55634;DHT22;41504;53.162;6.788;2022-10-17T02:05:03;13.00;88.20
55634;DHT22;41504;53.162;6.788;2022-10-17T02:07:29;13.00;88.20
55634;DHT22;41504;53.162;6.788;2022-10-17T02:09:54;13.10;88.40
55634;DHT22;41504;53.162;6.788;2022-10-17T02:24:02;13.00;88.60
55634;DHT22;41504;53.162;6.788;2022-10-17T02:29:33;13.00;89.30
55634;DHT22;41504;53.162;6.788;2022-10-17T02:32:19;12.90;88.80
55634;DHT22;41504;53.162;6.788;2022-10-17T02:34:49;12.90;88.80
55634;DHT22;41504;53.162;6.788;2022-10-17T02:37:19;12.90;89.00
55634;DHT22;41504;53.162;6.788;2022-10-17T02:39:47;12.90;89.10
55634;DHT22;41504;53.162;6.788;2022-10-17T02:42:15;12.90;89.10
55634;DHT22;41504;53.162;6.788;2022-10-17T02:44:43;12.90;89.20
55634;DHT22;41504;53.162;6.788;2022-10-17T02:47:31;12.80;89.30
55634;DHT22;41504;53.162;6.788;2022-10-17T02:49:57;12.80;89.30
55634;DHT22;41504;53.162;6.788;2022-10-17T02:55:10;12.80;89.40
55634;DHT22;41504;53.162;6.788;2022-10-17T02:57:49;12.80;89.50
55634;DHT22;41504;53.162;6.788;2022-10-17T03:00:16;12.80;89.50
55634;DHT22;41504;53.162;6.788;2022-10-17T03:02:45;12.80;89.60
55634;DHT22;41504;53.162;6.788;2022-10-17T03:05:13;12.80;89.60
55634;DHT22;41504;53.162;6.788;2022-10-17T03:07:39;12.80;89.70
55634;DHT22;41504;53.162;6.788;2022-10-17T03:10:08;12.80;89.80
55634;DHT22;41504;53.162;6.788;2022-10-17T03:12:34;12.80;89.90
55634;DHT22;41504;53.162;6.788;2022-10-17T03:15:00;12.80;89.90
55634;DHT22;41504;53.162;6.788;2022-10-17T03:17:32;12.80;90.00
55634;DHT22;41504;53.162;6.788;2022-10-17T03:19:57;12.80;89.90
55634;DHT22;41504;53.162;6.788;2022-10-17T03:22:23;12.80;89.90
55634;DHT22;41504;53.162;6.788;2022-10-17T03:24:49;12.80;90.00
55634;DHT22;41504;53.162;6.788;2022-10-17T03:27:15;12.80;90.00
55634;DHT22;41504;53.162;6.788;2022-10-17T03:29:40;12.80;90.00
55634;DHT22;41504;53.162;6.788;2022-10-17T03:32:09;12.80;90.10
55634;DHT22;41504;53.162;6.788;2022-10-17T03:34:35;12.70;90.10
55634;DHT22;41504;53.162;6.788;2022-10-17T03:37:01;12.80;90.10
55634;DHT22;41504;53.162;6.788;2022-10-17T03:39:26;12.80;90.10
55634;DHT22;41504;53.162;6.788;2022-10-17T03:41:52;12.80;90.10
55634;DHT22;41504;53.162;6.788;2022-10-17T03:44:18;12.80;90.20
55634;DHT22;41504;53.162;6.788;2022-10-17T03:46:44;12.80;90.20
55634;DHT22;41504;53.162;6.788;2022-10-17T03:49:09;12.80;90.30
55634;DHT22;41504;53.162;6.788;2022-10-17T03:51:35;12.80;90.30
55634;DHT22;41504;53.162;6.788;2022-10-17T03:54:01;12.80;90.40
55634;DHT22;41504;53.162;6.788;2022-10-17T03:56:27;12.80;90.40
55634;DHT22;41504;53.162;6.788;2022-10-17T03:58:56;12.80;90.40
55634;DHT22;41504;53.162;6.788;2022-10-17T04:01:22;12.90;90.40
55634;DHT22;41504;53.162;6.788;2022-10-17T04:03:53;12.80;90.50
55634;DHT22;41504;53.162;6.788;2022-10-17T04:06:19;12.80;90.50
55634;DHT22;41504;53.162;6.788;2022-10-17T04:08:45;12.90;90.50
55634;DHT22;41504;53.162;6.788;2022-10-17T04:11:16;12.90;90.50
55634;DHT22;41504;53.162;6.788;2022-10-17T04:13:43;12.80;90.60
55634;DHT22;41504;53.162;6.788;2022-10-17T04:16:14;12.80;90.60
55634;DHT22;41504;53.162;6.788;2022-10-17T04:18:40;12.80;90.60
55634;DHT22;41504;53.162;6.788;2022-10-17T04:21:07;12.80;90.60
55634;DHT22;41504;53.162;6.788;2022-10-17T04:23:34;12.80;90.70
55634;DHT22;41504;53.162;6.788;2022-10-17T04:26:01;12.80;90.70
55634;DHT22;41504;53.162;6.788;2022-10-17T04:28:28;12.80;90.70
55634;DHT22;41504;53.162;6.788;2022-10-17T04:30:58;12.80;90.70
55634;DHT22;41504;53.162;6.788;2022-10-17T04:33:24;12.80;90.80
55634;DHT22;41504;53.162;6.788;2022-10-17T04:36:09;12.90;90.80
55634;DHT22;41504;53.162;6.788;2022-10-17T04:38:36;12.80;90.80
55634;DHT22;41504;53.162;6.788;2022-10-17T04:41:04;12.80;91.00
55634;DHT22;41504;53.162;6.788;2022-10-17T04:43:32;12.80;90.90
55634;DHT22;41504;53.162;6.788;2022-10-17T04:45:59;12.80;91.00
55634;DHT22;41504;53.162;6.788;2022-10-17T04:48:27;12.80;91.00
55634;DHT22;41504;53.162;6.788;2022-10-17T04:51:01;12.80;91.00
55634;DHT22;41504;53.162;6.788;2022-10-17T04:53:30;12.80;91.00
55634;DHT22;41504;53.162;6.788;2022-10-17T04:55:56;12.80;91.10
55634;DHT22;41504;53.162;6.788;2022-10-17T04:58:22;12.90;91.10
55634;DHT22;41504;53.162;6.788;2022-10-17T05:00:47;12.90;91.10
55634;DHT22;41504;53.162;6.788;2022-10-17T05:03:13;12.90;91.10
55634;DHT22;41504;53.162;6.788;2022-10-17T05:05:40;12.90;91.20
55634;DHT22;41504;53.162;6.788;2022-10-17T05:08:07;12.90;91.20
55634;DHT22;41504;53.162;6.788;2022-10-17T05:10:41;13.00;91.20
55634;DHT22;41504;53.162;6.788;2022-10-17T05:13:08;13.00;91.30
55634;DHT22;41504;53.162;6.788;2022-10-17T05:15:35;13.00;91.30
55634;DHT22;41504;53.162;6.788;2022-10-17T05:18:02;13.00;91.30
55634;DHT22;41504;53.162;6.788;2022-10-17T05:20:29;13.00;91.30
55634;DHT22;41504;53.162;6.788;2022-10-17T05:22:54;13.00;91.40
55634;DHT22;41504;53.162;6.788;2022-10-17T05:25:20;13.00;91.40
55634;DHT22;41504;53.162;6.788;2022-10-17T05:27:46;13.10;91.40
55634;DHT22;41504;53.162;6.788;2022-10-17T05:30:12;13.10;91.40
55634;DHT22;41504;53.162;6.788;2022-10-17T05:32:37;13.10;91.50
55634;DHT22;41504;53.162;6.788;2022-10-17T05:35:03;13.10;91.50
55634;DHT22;41504;53.162;6.788;2022-10-17T05:37:30;13.20;91.60
55634;DHT22;41504;53.162;6.788;2022-10-17T05:39:56;13.20;91.60
55634;DHT22;41504;53.162;6.788;2022-10-17T05:42:22;13.20;91.60
55634;DHT22;41504;53.162;6.788;2022-10-17T05:44:48;13.20;91.60
55634;DHT22;41504;53.162;6.788;2022-10-17T05:47:14;13.10;91.60
55634;DHT22;41504;53.162;6.788;2022-10-17T05:49:40;13.20;91.70
55634;DHT22;41504;53.162;6.788;2022-10-17T05:52:06;13.20;91.70
55634;DHT22;41504;53.162;6.788;2022-10-17T05:54:32;13.20;91.70
55634;DHT22;41504;53.162;6.788;2022-10-17T05:56:58;13.20;91.70
55634;DHT22;41504;53.162;6.788;2022-10-17T05:59:25;13.20;91.80
55634;DHT22;41504;53.162;6.788;2022-10-17T06:01:52;13.30;91.80
55634;DHT22;41504;53.162;6.788;2022-10-17T17:10:21;14.70;93.00
55634;DHT22;41504;53.162;6.788;2022-10-17T17:12:46;14.60;93.40
55634;DHT22;41504;53.162;6.788;2022-10-17T17:15:12;14.60;93.70
55634;DHT22;41504;53.162;6.788;2022-10-17T17:17:41;14.60;94.10
55634;DHT22;41504;53.162;6.788;2022-10-17T17:20:07;14.60;94.40
55634;DHT22;41504;53.162;6.788;2022-10-17T17:22:34;14.60;94.80
55634;DHT22;41504;53.162;6.788;2022-10-17T17:24:59;14.60;94.90
55634;DHT22;41504;53.162;6.788;2022-10-17T17:27:28;14.60;95.20
55634;DHT22;41504;53.162;6.788;2022-10-17T17:29:56;14.50;95.30
55634;DHT22;41504;53.162;6.788;2022-10-17T17:32:22;14.60;95.50
55634;DHT22;41504;53.162;6.788;2022-10-17T17:34:48;14.60;95.70
55634;DHT22;41504;53.162;6.788;2022-10-17T17:37:14;14.60;95.90
55634;DHT22;41504;53.162;6.788;2022-10-17T17:39:39;14.60;95.90
55634;DHT22;41504;53.162;6.788;2022-10-17T17:42:05;14.50;96.00
55634;DHT22;41504;53.162;6.788;2022-10-17T17:44:31;14.50;96.10
55634;DHT22;41504;53.162;6.788;2022-10-17T17:46:56;14.50;96.10
55634;DHT22;41504;53.162;6.788;2022-10-17T17:49:25;14.50;96.20
55634;DHT22;41504;53.162;6.788;2022-10-17T17:51:51;14.60;96.20
55634;DHT22;41504;53.162;6.788;2022-10-17T17:54:16;14.50;96.30
55634;DHT22;41504;53.162;6.788;2022-10-17T17:56:42;14.50;96.30
55634;DHT22;41504;53.162;6.788;2022-10-17T17:59:10;14.50;96.30
55634;DHT22;41504;53.162;6.788;2022-10-17T18:01:36;14.50;96.40
55634;DHT22;41504;53.162;6.788;2022-10-17T18:04:05;14.40;96.30
55634;DHT22;41504;53.162;6.788;2022-10-17T18:06:31;14.50;96.30
55634;DHT22;41504;53.162;6.788;2022-10-17T18:08:58;14.50;96.30
55634;DHT22;41504;53.162;6.788;2022-10-17T18:11:25;14.50;96.30
55634;DHT22;41504;53.162;6.788;2022-10-17T18:13:54;14.50;96.30
55634;DHT22;41504;53.162;6.788;2022-10-17T18:16:20;14.40;96.20
55634;DHT22;41504;53.162;6.788;2022-10-17T18:18:46;14.40;96.20
55634;DHT22;41504;53.162;6.788;2022-10-17T18:21:13;14.40;96.30
55634;DHT22;41504;53.162;6.788;2022-10-17T18:23:42;14.40;96.30
55634;DHT22;41504;53.162;6.788;2022-10-17T18:26:09;14.40;96.20
55634;DHT22;41504;53.162;6.788;2022-10-17T18:28:37;14.50;96.20
55634;DHT22;41504;53.162;6.788;2022-10-17T18:31:15;14.40;96.20
55634;DHT22;41504;53.162;6.788;2022-10-17T18:33:43;14.50;96.20
55634;DHT22;41504;53.162;6.788;2022-10-17T18:36:11;14.50;96.30
55634;DHT22;41504;53.162;6.788;2022-10-17T18:38:37;14.50;96.20
55634;DHT22;41504;53.162;6.788;2022-10-17T18:41:06;14.50;96.20
55634;DHT22;41504;53.162;6.788;2022-10-17T18:43:34;14.40;96.20
55634;DHT22;41504;53.162;6.788;2022-10-17T18:46:02;14.50;96.20
55634;DHT22;41504;53.162;6.788;2022-10-17T18:48:32;14.50;96.20
55634;DHT22;41504;53.162;6.788;2022-10-17T18:51:02;14.50;96.20
55634;DHT22;41504;53.162;6.788;2022-10-17T18:53:33;14.40;96.10
55634;DHT22;41504;53.162;6.788;2022-10-17T18:56:00;14.50;96.20
55634;DHT22;41504;53.162;6.788;2022-10-17T18:58:28;14.50;96.10
55634;DHT22;41504;53.162;6.788;2022-10-17T19:00:53;14.50;96.10
55634;DHT22;41504;53.162;6.788;2022-10-17T19:03:19;14.50;96.10
55634;DHT22;41504;53.162;6.788;2022-10-17T19:05:45;14.40;96.10
55634;DHT22;41504;53.162;6.788;2022-10-17T19:08:13;14.50;96.10
55634;DHT22;41504;53.162;6.788;2022-10-17T19:10:40;14.40;96.10
55634;DHT22;41504;53.162;6.788;2022-10-17T19:13:08;14.40;96.10
55634;DHT22;41504;53.162;6.788;2022-10-17T19:15:34;14.40;96.10
55634;DHT22;41504;53.162;6.788;2022-10-17T19:18:00;14.40;96.10
55634;DHT22;41504;53.162;6.788;2022-10-17T19:20:26;14.40;96.10
55634;DHT22;41504;53.162;6.788;2022-10-17T19:22:51;14.40;96.10
55634;DHT22;41504;53.162;6.788;2022-10-17T19:25:17;14.40;96.10
55634;DHT22;41504;53.162;6.788;2022-10-17T19:27:43;14.40;96.10
55634;DHT22;41504;53.162;6.788;2022-10-17T19:30:09;14.40;96.10
55634;DHT22;41504;53.162;6.788;2022-10-17T19:32:37;14.40;96.10
55634;DHT22;41504;53.162;6.788;2022-10-17T19:35:04;14.40;96.10
55634;DHT22;41504;53.162;6.788;2022-10-17T19:37:30;14.40;96.10
55634;DHT22;41504;53.162;6.788;2022-10-17T19:39:56;14.40;96.10
55634;DHT22;41504;53.162;6.788;2022-10-17T19:42:22;14.40;96.00
55634;DHT22;41504;53.162;6.788;2022-10-17T19:44:48;14.30;96.00
55634;DHT22;41504;53.162;6.788;2022-10-17T19:47:14;14.30;96.00
55634;DHT22;41504;53.162;6.788;2022-10-17T19:49:39;14.30;96.00
55634;DHT22;41504;53.162;6.788;2022-10-17T19:52:05;14.30;96.00
55634;DHT22;41504;53.162;6.788;2022-10-17T19:54:31;14.30;96.00
55634;DHT22;41504;53.162;6.788;2022-10-17T19:56:56;14.30;96.00
55634;DHT22;41504;53.162;6.788;2022-10-17T19:59:22;14.30;96.00
55634;DHT22;41504;53.162;6.788;2022-10-17T20:01:48;14.20;95.90
55634;DHT22;41504;53.162;6.788;2022-10-17T20:04:14;14.20;95.90
55634;DHT22;41504;53.162;6.788;2022-10-17T20:06:40;14.20;95.90
55634;DHT22;41504;53.162;6.788;2022-10-17T20:09:06;14.20;96.00
55634;DHT22;41504;53.162;6.788;2022-10-17T20:11:32;14.20;95.90
55634;DHT22;41504;53.162;6.788;2022-10-17T20:13:59;14.20;95.90
55634;DHT22;41504;53.162;6.788;2022-10-17T20:16:28;14.20;95.90
55634;DHT22;41504;53.162;6.788;2022-10-17T20:18:57;14.20;95.90
55634;DHT22;41504;53.162;6.788;2022-10-17T20:21:27;14.10;95.90
55634;DHT22;41504;53.162;6.788;2022-10-17T20:23:58;14.10;95.90
55634;DHT22;41504;53.162;6.788;2022-10-17T20:26:25;14.10;95.90
55634;DHT22;41504;53.162;6.788;2022-10-17T20:28:51;14.10;95.90
55634;DHT22;41504;53.162;6.788;2022-10-17T20:31:16;14.10;95.90
55634;DHT22;41504;53.162;6.788;2022-10-17T20:33:42;14.10;95.90
55634;DHT22;41504;53.162;6.788;2022-10-17T20:36:10;14.10;95.90
55634;DHT22;41504;53.162;6.788;2022-10-17T20:38:36;14.10;96.00
55634;DHT22;41504;53.162;6.788;2022-10-17T20:41:04;14.10;95.90
55634;DHT22;41504;53.162;6.788;2022-10-17T20:43:30;14.10;95.90
55634;DHT22;41504;53.162;6.788;2022-10-17T20:45:56;14.10;95.90
55634;DHT22;41504;53.162;6.788;2022-10-17T20:48:22;14.10;95.90
55634;DHT22;41504;53.162;6.788;2022-10-17T20:50:48;14.10;95.80
55634;DHT22;41504;53.162;6.788;2022-10-17T20:53:15;14.10;95.80
55634;DHT22;41504;53.162;6.788;2022-10-17T20:55:44;14.10;95.80
55634;DHT22;41504;53.162;6.788;2022-10-17T20:58:10;14.10;95.80
55634;DHT22;41504;53.162;6.788;2022-10-17T21:00:40;14.10;95.80
55634;DHT22;41504;53.162;6.788;2022-10-17T21:03:09;14.10;96.00
55634;DHT22;41504;53.162;6.788;2022-10-17T21:05:38;14.10;95.80
55634;DHT22;41504;53.162;6.788;2022-10-17T21:08:05;14.10;95.80
55634;DHT22;41504;53.162;6.788;2022-10-17T21:10:31;14.10;95.80
55634;DHT22;41504;53.162;6.788;2022-10-17T21:12:57;14.10;95.80
55634;DHT22;41504;53.162;6.788;2022-10-17T21:15:23;14.10;95.80
55634;DHT22;41504;53.162;6.788;2022-10-17T21:17:49;14.10;95.70
55634;DHT22;41504;53.162;6.788;2022-10-17T21:20:15;14.10;95.70
55634;DHT22;41504;53.162;6.788;2022-10-17T21:22:41;14.10;95.70
55634;DHT22;41504;53.162;6.788;2022-10-17T21:25:07;14.00;95.70
55634;DHT22;41504;53.162;6.788;2022-10-17T21:27:33;14.00;95.60
55634;DHT22;41504;53.162;6.788;2022-10-17T21:29:58;14.00;95.60
55634;DHT22;41504;53.162;6.788;2022-10-17T21:32:24;14.00;95.60
55634;DHT22;41504;53.162;6.788;2022-10-17T21:34:50;13.90;95.60
55634;DHT22;41504;53.162;6.788;2022-10-17T21:37:16;13.90;95.60
55634;DHT22;41504;53.162;6.788;2022-10-17T21:39:41;13.90;95.50
55634;DHT22;41504;53.162;6.788;2022-10-17T21:42:07;13.90;95.60
55634;DHT22;41504;53.162;6.788;2022-10-17T21:44:33;13.80;95.60
55634;DHT22;41504;53.162;6.788;2022-10-17T21:47:01;13.80;95.60
55634;DHT22;41504;53.162;6.788;2022-10-17T21:49:26;13.80;95.60
55634;DHT22;41504;53.162;6.788;2022-10-17T21:51:54;13.80;95.50
55634;DHT22;41504;53.162;6.788;2022-10-17T21:54:21;13.80;95.60
55634;DHT22;41504;53.162;6.788;2022-10-17T21:56:51;13.80;95.50
55634;DHT22;41504;53.162;6.788;2022-10-17T21:59:17;13.80;95.60
55634;DHT22;41504;53.162;6.788;2022-10-17T22:01:44;13.80;95.50
55634;DHT22;41504;53.162;6.788;2022-10-17T22:04:16;13.80;95.50
55634;DHT22;41504;53.162;6.788;2022-10-17T22:06:45;13.80;95.50
55634;DHT22;41504;53.162;6.788;2022-10-17T22:09:20;13.80;95.50
55634;DHT22;41504;53.162;6.788;2022-10-17T22:11:52;13.80;95.50
55634;DHT22;41504;53.162;6.788;2022-10-17T22:14:20;13.80;95.50
55634;DHT22;41504;53.162;6.788;2022-10-17T22:16:47;13.80;95.50
55634;DHT22;41504;53.162;6.788;2022-10-17T22:19:16;13.80;95.50
55634;DHT22;41504;53.162;6.788;2022-10-17T22:21:42;13.80;95.50
55634;DHT22;41504;53.162;6.788;2022-10-17T22:24:11;13.80;95.50
55634;DHT22;41504;53.162;6.788;2022-10-17T22:26:37;13.70;95.50
55634;DHT22;41504;53.162;6.788;2022-10-17T22:29:04;13.70;95.50
55634;DHT22;41504;53.162;6.788;2022-10-17T22:31:30;13.70;95.50
55634;DHT22;41504;53.162;6.788;2022-10-17T22:33:56;13.60;95.50
55634;DHT22;41504;53.162;6.788;2022-10-17T22:36:21;13.60;95.50
55634;DHT22;41504;53.162;6.788;2022-10-17T22:38:47;13.60;95.50
55634;DHT22;41504;53.162;6.788;2022-10-17T22:41:13;13.60;95.50
55634;DHT22;41504;53.162;6.788;2022-10-17T22:43:38;13.50;95.50
55634;DHT22;41504;53.162;6.788;2022-10-17T22:46:06;13.50;95.50
55634;DHT22;41504;53.162;6.788;2022-10-17T22:48:32;13.50;95.50
55634;DHT22;41504;53.162;6.788;2022-10-17T22:50:59;13.40;95.50
55634;DHT22;41504;53.162;6.788;2022-10-17T22:53:25;13.40;95.50
55634;DHT22;41504;53.162;6.788;2022-10-17T22:56:06;13.40;95.50
55634;DHT22;41504;53.162;6.788;2022-10-17T22:58:33;13.30;95.50
55634;DHT22;41504;53.162;6.788;2022-10-17T23:00:59;13.30;95.50
55634;DHT22;41504;53.162;6.788;2022-10-17T23:03:26;13.30;95.50
55634;DHT22;41504;53.162;6.788;2022-10-17T23:05:52;13.30;95.50
55634;DHT22;41504;53.162;6.788;2022-10-17T23:08:18;13.30;95.50
55634;DHT22;41504;53.162;6.788;2022-10-17T23:10:47;13.20;95.50
55634;DHT22;41504;53.162;6.788;2022-10-17T23:13:14;13.20;95.50
55634;DHT22;41504;53.162;6.788;2022-10-17T23:15:40;13.20;95.50
55634;DHT22;41504;53.162;6.788;2022-10-17T23:18:06;13.20;95.50
55634;DHT22;41504;53.162;6.788;2022-10-17T23:20:33;13.20;95.50
55634;DHT22;41504;53.162;6.788;2022-10-17T23:22:59;13.20;95.50
55634;DHT22;41504;53.162;6.788;2022-10-17T23:25:25;13.20;95.50
55634;DHT22;41504;53.162;6.788;2022-10-17T23:27:50;13.20;95.50
55634;DHT22;41504;53.162;6.788;2022-10-17T23:30:16;13.20;95.50
55634;DHT22;41504;53.162;6.788;2022-10-17T23:32:45;13.30;95.50
55634;DHT22;41504;53.162;6.788;2022-10-17T23:35:11;13.20;95.50
55634;DHT22;41504;53.162;6.788;2022-10-17T23:37:37;13.30;95.50
55634;DHT22;41504;53.162;6.788;2022-10-17T23:40:04;13.30;95.40
55634;DHT22;41504;53.162;6.788;2022-10-17T23:42:30;13.30;95.50
55634;DHT22;41504;53.162;6.788;2022-10-17T23:44:56;13.30;95.50
55634;DHT22;41504;53.162;6.788;2022-10-17T23:47:22;13.30;95.50
55634;DHT22;41504;53.162;6.788;2022-10-17T23:49:47;13.30;95.50
55634;DHT22;41504;53.162;6.788;2022-10-17T23:52:13;13.40;95.50
55634;DHT22;41504;53.162;6.788;2022-10-17T23:54:39;13.40;95.50
55634;DHT22;41504;53.162;6.788;2022-10-17T23:57:04;13.40;95.50
55634;DHT22;41504;53.162;6.788;2022-10-17T23:59:30;13.40;95.50
